Terminal Aerodrome Forecast
Issued by NWS Sterling, VA

Current Version | Previous Version | Text Only | Print | Product List | Glossary Off
Versions: 1 2 3 4 5 6 7 8 9 10 11 12 13 14 15 16 17 18 19 20 21 22 23

732
FTUS41 KLWX 160837 AAA
TAFDCA
TAF AMD
KDCA 160837Z 1609/1706 07006KT P6SM OVC035
     FM161500 VRB03KT P6SM OVC025
     FM162300 17004KT P6SM OVC015=

USA.gov is the U.S. government's official web portal to all federal, state and local government web resources and services.